Settle, United Kingdom
Current Conditions -  °F | °C
As of 4:20 PM on Wednesday 28 Jan 2015 (Local Time) from EGNM Reporting Station
Snow Showers Snow Showers  
Wind Chill: 22°   Ceiling: Unl
Heat Index: 34°   Visibility: 4mi
Dew Point: 30°   Wind: 23mph
Humidity: 87%   Direction: 280°W
Pressure: 29.35"   Gusts: NA
Location:  54.07°N, 2.28°W
Report Text: EGNM 281620Z 28020KT 6000 -SHSN FEW004 SCT008 SCT012CB 01/M01 Q0994
Loading
Personal Weather Stations






























Interactive Weather Map New forecast layout! Learn more

10-Day Weather Forecast

Advertisements
Track Severe Weather on mobile